Phelps, New York
Current Conditions -  °F | °C
As of 2:53 AM on Monday 26 Jan 2015 (Local Time) from KPEO Reporting Station
Broken Clouds Broken Clouds  
Wind Chill: -11°   Ceiling: 10000
Heat Index: -11°   Visibility: 10mi
Dew Point: -16°   Wind: 0mph
Humidity: 70%   Direction: NA
Pressure: 30"   Gusts: NA
Location:  42.96°N, 77.06°W
Report Text: KPEO 260753Z AUTO 00000KT 10SM BKN100 M11/M16 A3000 RMK AO2 SLP177 T11111156
Loading
Personal Weather Stations






























Interactive Weather Map New forecast layout! Learn more

10-Day Weather Forecast

Advertisements
Track Severe Weather on mobile